createdAt,value
2023-04-09T00:01:55.765Z,98
2023-04-09T00:11:56.694Z,99
2023-04-09T00:31:57.956Z,99
2023-04-09T00:51:58.398Z,99
2023-04-09T01:11:59.878Z,99
2023-04-09T01:22:00.976Z,99
2023-04-09T01:42:01.894Z,100
2023-04-09T01:52:02.143Z,100
2023-04-09T02:02:02.964Z,100
2023-04-09T02:12:03.511Z,100
2023-04-09T02:22:04.122Z,100
2023-04-09T02:32:04.269Z,100
2023-04-09T02:42:05.333Z,100
2023-04-09T02:52:05.703Z,100
2023-04-09T03:02:06.045Z,100
2023-04-09T03:12:06.690Z,100
2023-04-09T03:22:07.775Z,100
2023-04-09T03:32:08.155Z,100
2023-04-09T03:42:08.885Z,100
2023-04-09T03:52:09.049Z,100
2023-04-09T04:12:10.354Z,100
2023-04-09T04:22:11.308Z,100
2023-04-09T04:32:11.852Z,100
2023-04-09T04:42:12.105Z,100
2023-04-09T04:52:12.867Z,100
2023-04-09T05:12:14.066Z,100
2023-04-09T05:22:14.254Z,100
2023-04-09T05:32:14.500Z,100
2023-04-09T05:52:15.676Z,100
2023-04-09T06:02:16.182Z,100
2023-04-09T06:42:18.855Z,100
2023-04-09T06:52:19.148Z,100
2023-04-09T07:02:19.401Z,100
2023-04-09T07:12:19.603Z,98
2023-04-09T07:32:20.724Z,95
2023-04-09T07:52:22.225Z,91
2023-04-09T08:02:23.196Z,88
2023-04-09T08:12:24.227Z,86
2023-04-09T08:32:25.346Z,83
2023-04-09T08:42:26.086Z,82
2023-04-09T08:52:26.728Z,79
2023-04-09T09:02:26.901Z,77
2023-04-09T09:12:27.373Z,74
2023-04-09T09:22:27.879Z,70
2023-04-09T09:32:28.864Z,66
2023-04-09T09:42:29.153Z,63
2023-04-09T09:52:30.058Z,65
2023-04-09T10:22:31.675Z,62
2023-04-09T10:32:32.474Z,62
2023-04-09T10:42:32.623Z,58
2023-04-09T10:52:33.103Z,58
2023-04-09T11:02:34.249Z,57
2023-04-09T11:12:34.475Z,57
2023-04-09T11:22:35.337Z,57
2023-04-09T11:32:35.979Z,57
2023-04-09T11:42:36.560Z,58
2023-04-09T11:52:36.811Z,58
2023-04-09T12:02:37.220Z,55
2023-04-09T12:12:37.645Z,57
2023-04-09T12:22:38.126Z,55
2023-04-09T12:32:38.715Z,56
2023-04-09T12:42:38.825Z,54
2023-04-09T12:52:39.441Z,55
2023-04-09T13:02:40.419Z,55
2023-04-09T13:12:41.419Z,54
2023-04-09T13:22:42.115Z,54
2023-04-09T13:32:43.063Z,55
2023-04-09T13:42:43.329Z,55
2023-04-09T13:52:44.163Z,55
2023-04-09T14:02:45.027Z,55
2023-04-09T14:12:45.158Z,54
2023-04-09T14:32:45.511Z,53
2023-04-09T14:42:46.206Z,54
2023-04-09T16:32:52.178Z,56
2023-04-09T16:52:53.489Z,57
2023-04-09T17:12:54.530Z,57
2023-04-09T17:22:55.268Z,58
2023-04-09T17:32:55.751Z,59
2023-04-09T17:42:56.037Z,59
2023-04-09T17:52:56.635Z,60
2023-04-09T18:02:57.793Z,60
2023-04-09T18:33:00.318Z,63
2023-04-09T18:43:00.760Z,65
2023-04-09T19:03:01.380Z,69
2023-04-09T19:13:01.886Z,69
2023-04-09T19:23:02.950Z,70
2023-04-09T19:33:03.669Z,71
2023-04-09T19:43:04.340Z,72
2023-04-09T19:53:05.305Z,74
2023-04-09T20:13:06.591Z,75
2023-04-09T20:23:06.806Z,75
2023-04-09T20:33:07.494Z,76
2023-04-09T20:43:08.128Z,75
2023-04-09T21:03:09.178Z,81
2023-04-09T21:13:09.290Z,81
2023-04-09T21:23:09.699Z,81
2023-04-09T21:33:10.711Z,80
2023-04-09T21:43:11.781Z,81
2023-04-09T21:53:12.086Z,81
2023-04-09T22:03:12.279Z,80
2023-04-09T22:13:12.917Z,80
2023-04-09T22:33:14.458Z,80
2023-04-09T22:43:15.018Z,81
2023-04-09T22:53:16.051Z,81
2023-04-09T23:03:16.888Z,81
2023-04-09T23:13:17.848Z,81
2023-04-09T23:23:17.984Z,81
2023-04-09T23:33:18.210Z,81
2023-04-09T23:43:19.028Z,81
2023-04-09T23:53:19.825Z,81
